Air Resources Laboratory banner image
Air Resources Laboratory web site National Oceanic and Atmospheric Administration (NOAA)

ct metar


KBDL 160951Z 36005KT 10SM FEW160 BKN250 14/12 A3004 RMK AO2 SLP169 T01440122=
KBDR 160952Z AUTO 36008KT 10SM CLR 17/13 A3000 RMK AO2 SLP160 T01670133=
KDXR 160953Z AUTO 00000KT 10SM CLR 14/12 A3003 RMK AO2 SLP167 T01390117=
KGON 160956Z AUTO 01008KT 10SM CLR 16/13 A3001 RMK AO2 SLP160 T01560128 $=
KHFD 160953Z 35005KT 10SM CLR 16/13 A3003 RMK AO2 SLP167 T01560133=
KHVN 160953Z 36005KT 10SM CLR 16/13 A3002 RMK AO2 SLP164 T01610133=
KIJD 160952Z AUTO 00000KT 10SM CLR 12/12 A3004 RMK AO2 SLP170 T01220117=
KMMK 160953Z AUTO 00000KT 10SM CLR 13/11 A3002 RMK AO2 SLP164 T01330111=
KOXC 160951Z AUTO 03006KT 10SM CLR 15/11 A3004 RMK AO2 SLP178 T01500111=